Time;durP1;ratioP1;P1;durP2;ratioP2;P2;SDS_P1;SDS_P2;PMS_P1;PMS_P2;Temp;Humidity;BMP_temperature;BMP_pressure;BME280_temperature;BME280_humidity;BME280_pressure;Samples;Min_cycle;Max_cycle;Signal;HPM_P1;HPM_P2
2021/11/18 00:00:42;;;;;;;1.35;1.10;;;5.70;99.90;;;;;;5112887;28;20069;-72
2021/11/18 00:03:10;;;;;;;0.88;0.85;;;5.70;99.90;;;;;;5112846;28;20132;-72
2021/11/18 00:05:35;;;;;;;1.10;1.00;;;5.70;99.90;;;;;;5112847;28;20054;-72
2021/11/18 00:08:03;;;;;;;0.85;0.73;;;5.70;99.90;;;;;;5113084;28;20058;-72
2021/11/18 00:10:39;;;;;;;0.80;0.80;;;5.70;99.90;;;;;;5112818;28;20015;-72
2021/11/18 00:13:09;;;;;;;3.83;1.42;;;5.60;99.90;;;;;;5112491;28;20024;-72
2021/11/18 00:15:35;;;;;;;;;;;5.60;99.90;;;;;;5112905;28;20020;-72
2021/11/18 00:18:05;;;;;;;0.80;0.80;;;5.60;99.90;;;;;;5112808;28;19914;-72
2021/11/18 00:20:35;;;;;;;1.08;0.98;;;5.60;99.90;;;;;;5112456;28;20034;-72
2021/11/18 00:23:02;;;;;;;1.25;0.90;;;5.60;99.90;;;;;;5112663;28;20067;-72
2021/11/18 00:25:27;;;;;;;1.27;0.80;;;5.60;99.90;;;;;;5112281;28;20066;-71
2021/11/18 00:27:53;;;;;;;0.95;0.80;;;5.60;99.90;;;;;;5112785;27;20491;-71
2021/11/18 00:30:20;;;;;;;1.17;1.00;;;5.60;99.90;;;;;;5112176;28;20020;-71
2021/11/18 00:32:46;;;;;;;0.70;0.70;;;5.60;99.90;;;;;;5112639;28;20034;-71
2021/11/18 00:35:16;;;;;;;1.10;1.00;;;5.60;99.90;;;;;;5112092;28;20395;-71
2021/11/18 00:37:43;;;;;;;0.80;0.80;;;5.50;99.90;;;;;;5112417;28;20077;-72
2021/11/18 00:40:11;;;;;;;0.98;0.90;;;5.50;99.90;;;;;;5112023;28;20032;-72
2021/11/18 00:42:37;;;;;;;1.23;0.90;;;5.50;99.90;;;;;;5108153;28;20032;-71
2021/11/18 00:45:04;;;;;;;2.40;0.85;;;5.50;99.90;;;;;;5091780;28;20024;-72
2021/11/18 00:47:30;;;;;;;0.75;0.75;;;5.50;99.90;;;;;;5093731;28;20387;-71
2021/11/18 00:49:56;;;;;;;1.00;0.90;;;5.50;99.90;;;;;;5112098;28;20019;-72
2021/11/18 00:52:22;;;;;;;0.73;0.70;;;5.50;99.90;;;;;;5112006;28;20027;-72
2021/11/18 00:54:48;;;;;;;1.05;1.00;;;5.50;99.90;;;;;;5111954;28;20577;-71
2021/11/18 00:57:14;;;;;;;0.85;0.80;;;5.50;99.90;;;;;;5111894;28;20483;-72
2021/11/18 00:59:40;;;;;;;0.80;0.80;;;5.50;99.90;;;;;;5112207;28;20026;-73
2021/11/18 01:02:06;;;;;;;0.80;0.80;;;5.50;99.90;;;;;;5112017;28;20767;-73
2021/11/18 01:04:31;;;;;;;0.95;0.73;;;5.50;99.90;;;;;;5110523;28;20440;-73
2021/11/18 01:06:58;;;;;;;0.80;0.80;;;5.50;99.90;;;;;;5111767;28;20047;-73
2021/11/18 01:09:25;;;;;;;0.95;0.73;;;5.50;99.90;;;;;;5112108;28;20039;-73
2021/11/18 01:11:51;;;;;;;1.08;0.80;;;5.50;99.90;;;;;;5111905;28;20031;-73
2021/11/18 01:14:20;;;;;;;0.77;0.77;;;5.50;99.90;;;;;;5110782;28;20356;-72
2021/11/18 01:16:47;;;;;;;1.27;0.90;;;5.50;99.90;;;;;;5111877;28;20030;-72
2021/11/18 01:19:14;;;;;;;0.90;0.70;;;5.40;99.90;;;;;;5112145;28;20468;-73
2021/11/18 01:21:42;;;;;;;0.63;0.63;;;5.50;99.90;;;;;;5111745;28;20038;-74
2021/11/18 01:24:08;;;;;;;1.00;0.80;;;5.40;99.90;;;;;;5111620;28;20027;-73
2021/11/18 01:26:34;;;;;;;1.33;0.80;;;5.40;99.90;;;;;;5111819;28;20499;-73
2021/11/18 01:29:01;;;;;;;0.80;0.70;;;5.40;99.90;;;;;;5111704;28;20020;-73
2021/11/18 01:31:28;;;;;;;0.68;0.60;;;5.40;99.90;;;;;;5111590;28;20020;-73
2021/11/18 01:33:54;;;;;;;2.80;1.42;;;5.40;99.90;;;;;;5111775;28;20027;-71
2021/11/18 01:36:20;;;;;;;0.77;0.77;;;5.40;99.90;;;;;;5103584;28;20035;-71
2021/11/18 01:38:46;;;;;;;0.93;0.80;;;5.40;99.90;;;;;;5091700;28;20024;-72
2021/11/18 01:41:20;;;;;;;0.80;0.80;;;5.40;99.90;;;;;;5091037;28;20515;-72
2021/11/18 01:43:52;;;;;;;0.93;0.80;;;5.40;99.90;;;;;;5105059;28;20031;-72
2021/11/18 01:46:27;;;;;;;1.20;0.90;;;5.40;99.90;;;;;;5111407;27;20383;-72
2021/11/18 01:48:54;;;;;;;1.80;0.80;;;5.40;99.90;;;;;;5111864;28;20030;-72
2021/11/18 01:51:27;;;;;;;0.80;0.80;;;5.40;99.90;;;;;;5096818;28;20102;-72
2021/11/18 01:53:53;;;;;;;2.10;0.70;;;5.30;99.90;;;;;;5104302;28;20357;-72
2021/11/18 01:56:23;;;;;;;0.60;0.60;;;5.40;99.90;;;;;;5110859;28;20106;-72
2021/11/18 01:58:51;;;;;;;;;;;5.30;99.90;;;;;;5111997;28;20044;-72
2021/11/18 02:01:18;;;;;;;0.60;0.60;;;5.30;99.90;;;;;;5111204;28;19931;-71
2021/11/18 02:03:44;;;;;;;0.60;0.60;;;5.30;99.90;;;;;;5111833;28;20050;-72
2021/11/18 02:06:30;;;;;;;0.70;0.70;;;5.30;99.90;;;;;;5110990;28;20359;-71
2021/11/18 02:08:55;;;;;;;0.60;0.60;;;5.30;99.90;;;;;;5111771;28;20026;-71
2021/11/18 02:11:29;;;;;;;0.70;0.70;;;5.30;99.90;;;;;;5111245;28;20419;-70
2021/11/18 02:13:58;;;;;;;0.90;0.90;;;5.30;99.90;;;;;;5111347;28;20024;-70
2021/11/18 02:16:25;;;;;;;1.30;0.80;;;5.30;99.90;;;;;;5110931;28;20471;-70
2021/11/18 02:18:50;;;;;;;0.70;0.70;;;5.20;99.90;;;;;;5115158;28;20111;-71
2021/11/18 02:21:18;;;;;;;0.70;0.70;;;5.20;99.90;;;;;;5114938;28;20095;-70
2021/11/18 02:23:56;;;;;;;0.70;0.70;;;5.20;99.90;;;;;;5113510;28;20020;-70
2021/11/18 02:53:03;;;;;;;0.60;0.60;;;5.20;99.90;;;;;;5114442;28;20044;-70
2021/11/18 02:55:39;;;;;;;0.70;0.70;;;5.20;99.90;;;;;;5114176;28;20188;-70
2021/11/18 02:58:06;;;;;;;0.65;0.65;;;5.20;99.90;;;;;;5114591;27;20055;-71
2021/11/18 03:00:59;;;;;;;0.60;0.60;;;5.10;99.90;;;;;;5114447;28;20470;-71
2021/11/18 03:03:25;;;;;;;0.70;0.70;;;5.10;99.90;;;;;;5103032;28;20421;-71
2021/11/18 03:05:52;;;;;;;0.50;0.50;;;5.10;99.90;;;;;;5114163;28;20028;-71
2021/11/18 03:08:20;;;;;;;0.98;0.80;;;5.10;99.90;;;;;;5113952;28;20024;-71
2021/11/18 03:10:47;;;;;;;0.80;0.80;;;5.10;99.90;;;;;;5113807;28;20032;-70
2021/11/18 03:13:13;;;;;;;0.68;0.68;;;5.10;99.90;;;;;;5113936;28;20034;-71
2021/11/18 03:15:39;;;;;;;0.70;0.70;;;5.10;99.90;;;;;;5113785;28;20023;-71
2021/11/18 03:18:05;;;;;;;0.70;0.70;;;5.10;99.90;;;;;;5113611;28;20479;-71
2021/11/18 03:20:31;;;;;;;0.70;0.70;;;5.10;99.90;;;;;;5113897;28;20467;-71
2021/11/18 03:22:57;;;;;;;0.57;0.57;;;5.10;99.90;;;;;;5113381;28;20089;-71
2021/11/18 03:25:28;;;;;;;0.60;0.60;;;5.00;99.90;;;;;;5113695;28;20022;-71
2021/11/18 03:27:54;;;;;;;;;;;5.00;99.90;;;;;;5113649;28;20031;-71
2021/11/18 03:30:24;;;;;;;0.55;0.55;;;5.00;99.90;;;;;;5113419;28;19904;-70
2021/11/18 03:32:56;;;;;;;0.50;0.50;;;5.00;99.90;;;;;;5098965;28;20028;-70
2021/11/18 03:35:24;;;;;;;0.80;0.70;;;5.00;99.90;;;;;;5112160;28;20387;-70
2021/11/18 03:37:50;;;;;;;0.60;0.60;;;5.00;99.90;;;;;;5113295;28;20026;-70
2021/11/18 03:40:16;;;;;;;0.60;0.60;;;5.00;99.90;;;;;;5113286;28;20066;-69
2021/11/18 03:42:43;;;;;;;1.35;0.70;;;5.00;99.90;;;;;;5113225;28;20130;-69
2021/11/18 03:45:09;;;;;;;0.60;0.60;;;5.00;99.90;;;;;;5113252;27;20024;-69
2021/11/18 03:47:36;;;;;;;0.50;0.50;;;5.00;99.90;;;;;;5113148;28;20023;-69
2021/11/18 03:50:02;;;;;;;0.60;0.60;;;5.00;99.90;;;;;;5112900;28;20019;-70
2021/11/18 03:52:28;;;;;;;0.50;0.50;;;5.00;99.90;;;;;;5113028;28;20031;-69
2021/11/18 03:54:54;;;;;;;0.50;0.50;;;5.00;99.90;;;;;;5112842;28;20084;-69
2021/11/18 03:57:19;;;;;;;0.90;0.60;;;5.00;99.90;;;;;;5113019;28;20076;-69
2021/11/18 03:59:47;;;;;;;0.60;0.60;;;4.90;99.90;;;;;;5113153;28;20016;-69
2021/11/18 04:02:13;;;;;;;1.35;0.60;;;4.90;99.90;;;;;;5112604;27;20491;-69
2021/11/18 04:04:43;;;;;;;0.50;0.50;;;4.90;99.90;;;;;;5112999;28;20031;-70
2021/11/18 04:07:10;;;;;;;0.70;0.70;;;4.90;99.90;;;;;;5112581;28;20031;-71
2021/11/18 04:09:36;;;;;;;1.02;0.60;;;4.90;99.90;;;;;;5112889;28;20038;-71
2021/11/18 04:12:03;;;;;;;0.60;0.60;;;4.90;99.90;;;;;;5099146;28;20061;-71
2021/11/18 04:14:30;;;;;;;1.60;0.65;;;4.90;99.90;;;;;;5112944;28;20023;-71
2021/11/18 04:16:57;;;;;;;0.57;0.57;;;4.80;99.90;;;;;;5112910;28;20019;-71
2021/11/18 04:19:24;;;;;;;0.40;0.40;;;4.80;99.90;;;;;;5111302;28;20023;-71
2021/11/18 04:21:51;;;;;;;0.60;0.60;;;4.70;99.90;;;;;;5111247;28;20111;-71
2021/11/18 04:24:21;;;;;;;0.98;0.60;;;4.80;99.90;;;;;;5112214;28;20472;-71
2021/11/18 04:26:48;;;;;;;0.60;0.60;;;4.70;99.90;;;;;;5103675;28;20032;-71
2021/11/18 04:29:16;;;;;;;1.85;0.60;;;4.80;99.90;;;;;;5091932;28;20044;-70
2021/11/18 04:31:41;;;;;;;0.60;0.60;;;4.80;99.90;;;;;;5092302;28;20016;-70
2021/11/18 04:34:08;;;;;;;0.77;0.73;;;4.70;99.90;;;;;;5104389;28;20045;-70
2021/11/18 04:36:36;;;;;;;0.60;0.60;;;4.80;99.90;;;;;;5112335;28;20058;-70
2021/11/18 04:39:04;;;;;;;0.70;0.60;;;4.70;99.90;;;;;;5111812;28;20028;-70
2021/11/18 04:41:30;;;;;;;0.98;0.63;;;4.70;99.90;;;;;;5111673;28;20028;-70
2021/11/18 04:43:57;;;;;;;0.60;0.60;;;4.70;99.90;;;;;;5112607;28;20500;-70
2021/11/18 04:46:24;;;;;;;0.63;0.63;;;4.60;99.90;;;;;;5112052;28;20546;-70
2021/11/18 04:48:50;;;;;;;0.50;0.50;;;4.60;99.90;;;;;;5110905;28;20032;-70
2021/11/18 04:51:18;;;;;;;0.60;0.60;;;4.60;99.90;;;;;;5111872;28;20027;-71
2021/11/18 04:53:44;;;;;;;1.30;0.68;;;4.60;99.90;;;;;;5112042;28;20031;-70
2021/11/18 04:56:10;;;;;;;2.50;0.60;;;4.60;99.90;;;;;;5110404;28;20051;-70
2021/11/18 04:58:37;;;;;;;1.55;0.70;;;4.50;99.90;;;;;;5112260;28;20030;-70
2021/11/18 05:01:05;;;;;;;1.33;0.65;;;4.50;99.90;;;;;;5111782;28;20479;-70
2021/11/18 05:03:31;;;;;;;1.42;0.80;;;4.50;99.90;;;;;;5112060;28;20127;-70
2021/11/18 05:05:57;;;;;;;2.50;1.25;;;4.50;99.90;;;;;;5111759;28;20053;-70
2021/11/18 05:08:24;;;;;;;1.10;0.65;;;4.50;99.90;;;;;;5111735;28;20031;-70
2021/11/18 05:10:51;;;;;;;0.75;0.52;;;4.50;99.90;;;;;;5111851;28;20042;-70
2021/11/18 05:13:21;;;;;;;2.38;0.90;;;4.50;99.90;;;;;;5110340;28;20020;-70
2021/11/18 05:15:48;;;;;;;0.77;0.77;;;4.40;99.90;;;;;;5111768;28;20028;-70
2021/11/18 05:18:14;;;;;;;2.63;0.93;;;4.40;99.90;;;;;;5110432;28;20164;-70
2021/11/18 05:20:41;;;;;;;1.05;0.70;;;4.40;99.90;;;;;;5111362;28;20389;-71
2021/11/18 05:23:09;;;;;;;2.78;0.80;;;4.40;99.90;;;;;;5098164;28;20515;-72
2021/11/18 05:25:35;;;;;;;0.70;0.70;;;4.40;99.90;;;;;;5111694;28;20039;-71
2021/11/18 05:28:02;;;;;;;0.93;0.70;;;4.30;99.90;;;;;;5106234;28;20046;-72
2021/11/18 05:30:32;;;;;;;1.80;0.70;;;4.30;99.90;;;;;;5091461;28;20021;-70
2021/11/18 05:33:01;;;;;;;1.85;0.63;;;4.30;99.90;;;;;;5109739;28;20012;-68
2021/11/18 05:35:28;;;;;;;5.25;0.70;;;4.30;99.90;;;;;;5111618;27;20081;-65
2021/11/18 05:37:54;;;;;;;2.67;0.60;;;4.30;99.90;;;;;;5097044;28;20028;-68
2021/11/18 05:40:22;;;;;;;3.13;0.70;;;4.30;99.90;;;;;;5111440;28;20023;-69
2021/11/18 05:42:48;;;;;;;1.52;0.50;;;4.70;99.90;;;;;;5111230;28;20046;-65
2021/11/18 05:45:18;;;;;;;0.68;0.50;;;6.50;99.90;;;;;;5110997;28;20024;-66
2021/11/18 05:47:44;;;;;;;0.45;0.45;;;6.50;99.90;;;;;;5097360;28;20031;-67
2021/11/18 05:50:12;;;;;;;1.83;0.70;;;6.10;99.90;;;;;;5098200;28;20057;-66
2021/11/18 05:52:39;;;;;;;1.02;0.55;;;5.70;99.90;;;;;;5098860;28;20024;-67
2021/11/18 05:55:06;;;;;;;3.28;0.80;;;5.40;99.90;;;;;;5098381;28;20068;-66
2021/11/18 05:57:32;;;;;;;1.48;0.60;;;5.20;99.90;;;;;;5094087;28;20092;-66
2021/11/18 05:59:58;;;;;;;2.50;0.80;;;5.00;99.90;;;;;;5107301;28;20016;-65
2021/11/18 06:02:24;;;;;;;1.75;0.60;;;4.90;99.90;;;;;;5094309;28;20369;-65
2021/11/18 06:04:50;;;;;;;1.98;0.63;;;4.80;99.90;;;;;;5094248;28;20020;-65
2021/11/18 06:07:16;;;;;;;1.42;0.60;;;4.70;99.90;;;;;;5097103;28;20035;-67
2021/11/18 06:09:42;;;;;;;3.35;0.60;;;4.60;99.90;;;;;;5097810;28;20033;-65
2021/11/18 06:12:10;;;;;;;1.95;0.60;;;4.60;99.90;;;;;;5100200;28;20020;-65
2021/11/18 06:14:35;;;;;;;2.83;0.70;;;4.50;99.90;;;;;;5101004;28;20023;-65
2021/11/18 06:17:02;;;;;;;2.03;0.73;;;4.50;99.90;;;;;;5106673;28;20495;-65
2021/11/18 06:19:27;;;;;;;1.25;0.60;;;4.50;99.90;;;;;;5103920;28;20144;-65
2021/11/18 06:21:53;;;;;;;1.23;0.70;;;4.50;99.90;;;;;;5113711;28;20045;-65
2021/11/18 06:24:22;;;;;;;1.17;0.80;;;4.40;99.90;;;;;;5113361;28;20096;-65
2021/11/18 06:26:52;;;;;;;1.77;1.05;;;4.40;99.90;;;;;;5115028;28;20107;-65
2021/11/18 06:29:21;;;;;;;1.38;0.70;;;4.40;99.90;;;;;;5115156;28;20020;-65
2021/11/18 06:31:48;;;;;;;1.33;0.60;;;4.40;99.90;;;;;;5114903;28;20040;-65
2021/11/18 06:34:15;;;;;;;2.40;0.90;;;4.30;99.90;;;;;;5114531;28;20180;-65
2021/11/18 06:36:43;;;;;;;1.17;0.80;;;4.30;99.90;;;;;;5114497;28;20031;-65
2021/11/18 06:39:09;;;;;;;0.85;0.60;;;4.30;99.90;;;;;;5114526;28;20019;-65
2021/11/18 06:41:35;;;;;;;2.03;0.82;;;4.30;99.90;;;;;;5109197;28;20465;-65
2021/11/18 06:44:00;;;;;;;0.80;0.70;;;4.20;99.90;;;;;;5094931;28;20032;-65
2021/11/18 06:46:27;;;;;;;2.13;0.95;;;4.20;99.90;;;;;;5095046;28;20091;-65
2021/11/18 06:48:53;;;;;;;2.65;0.60;;;4.10;99.90;;;;;;5104048;28;20360;-65
2021/11/18 06:51:22;;;;;;;1.00;0.70;;;4.10;99.90;;;;;;5100533;28;20024;-65
2021/11/18 06:53:50;;;;;;;2.58;0.90;;;4.10;99.90;;;;;;5105933;28;20029;-67
2021/11/18 06:56:16;;;;;;;3.17;1.00;;;4.00;99.90;;;;;;5094227;28;20093;-67
2021/11/18 06:58:42;;;;;;;0.70;0.70;;;4.00;99.90;;;;;;5094108;28;20069;-67
2021/11/18 07:01:09;;;;;;;2.92;1.00;;;4.40;99.90;;;;;;5105241;28;20032;-68
2021/11/18 07:03:39;;;;;;;53.83;3.08;;;4.60;99.90;;;;;;5093106;28;20043;-67
2021/11/18 07:06:06;;;;;;;1.92;0.70;;;5.50;99.90;;;;;;5100648;28;20425;-72
2021/11/18 07:08:33;;;;;;;1.38;0.70;;;5.80;99.90;;;;;;5103325;28;20514;-64
2021/11/18 07:10:58;;;;;;;1.02;0.70;;;5.60;99.90;;;;;;5097290;28;20028;-64
2021/11/18 07:13:26;;;;;;;0.88;0.60;;;5.20;99.90;;;;;;5094111;28;20024;-63
2021/11/18 07:15:53;;;;;;;2.50;0.70;;;4.80;99.90;;;;;;5094588;28;20030;-63
2021/11/18 07:18:20;;;;;;;1.67;0.73;;;4.50;99.90;;;;;;5093787;28;20433;-63
2021/11/18 07:20:47;;;;;;;2.00;0.80;;;4.40;99.90;;;;;;5109162;28;20058;-64
2021/11/18 07:23:14;;;;;;;1.27;0.70;;;4.20;99.90;;;;;;5111505;27;20035;-62
2021/11/18 07:25:40;;;;;;;3.42;0.80;;;4.20;99.90;;;;;;5111573;28;20081;-64
2021/11/18 07:28:07;;;;;;;1.80;0.73;;;4.10;99.90;;;;;;5114168;27;20498;-64
2021/11/18 07:30:33;;;;;;;2.42;0.70;;;4.10;99.90;;;;;;5107890;27;20020;-64
2021/11/18 07:32:59;;;;;;;1.83;0.80;;;4.00;99.90;;;;;;5113567;28;20332;-64
2021/11/18 07:35:25;;;;;;;3.88;0.80;;;4.00;99.90;;;;;;5109097;27;20028;-65
2021/11/18 07:37:51;;;;;;;2.53;0.95;;;3.90;99.90;;;;;;5106551;28;20034;-65
2021/11/18 07:40:19;;;;;;;1.25;0.60;;;3.90;99.90;;;;;;5110222;28;20012;-64
2021/11/18 07:42:47;;;;;;;3.88;0.85;;;3.80;99.90;;;;;;5112831;28;20387;-63
2021/11/18 07:45:15;;;;;;;0.68;0.68;;;3.80;99.90;;;;;;5112928;28;20030;-63
2021/11/18 07:47:40;;;;;;;1.33;0.80;;;3.70;99.90;;;;;;5113145;27;20170;-63
2021/11/18 07:50:08;;;;;;;0.70;0.60;;;3.70;99.90;;;;;;5112581;28;20032;-63
2021/11/18 07:52:36;;;;;;;2.45;0.80;;;3.60;99.90;;;;;;5097185;28;20028;-66
2021/11/18 07:55:02;;;;;;;1.90;0.85;;;3.60;99.90;;;;;;5096149;28;20038;-65
2021/11/18 07:57:28;;;;;;;1.08;0.60;;;3.50;99.90;;;;;;5101751;28;20376;-63
2021/11/18 07:59:53;;;;;;;3.15;0.90;;;3.70;99.90;;;;;;5113116;27;20028;-64
2021/11/18 08:02:19;;;;;;;2.72;0.70;;;3.70;99.90;;;;;;5108329;27;20494;-64
2021/11/18 08:04:45;;;;;;;1.88;0.95;;;3.60;99.90;;;;;;5111221;28;20050;-66
2021/11/18 08:07:10;;;;;;;1.10;0.70;;;3.60;99.90;;;;;;5112070;27;20052;-63
2021/11/18 08:09:36;;;;;;;5.85;1.15;;;3.50;99.90;;;;;;5111576;28;20016;-63
2021/11/18 08:12:07;;;;;;;1.67;0.80;;;3.80;99.90;;;;;;5096609;28;20460;-65
2021/11/18 08:14:33;;;;;;;2.60;0.95;;;4.10;99.90;;;;;;5104935;28;20048;-64
2021/11/18 08:17:00;;;;;;;1.73;1.17;;;4.00;99.90;;;;;;5111744;28;20435;-64
2021/11/18 08:19:26;;;;;;;3.90;1.00;;;3.90;99.90;;;;;;5100971;28;20024;-64
2021/11/18 08:21:54;;;;;;;2.85;0.90;;;3.80;99.90;;;;;;5100336;28;20110;-65
2021/11/18 08:24:22;;;;;;;2.22;1.05;;;3.70;99.90;;;;;;5097767;28;20032;-65
2021/11/18 08:26:48;;;;;;;5.15;0.90;;;3.60;99.90;;;;;;5095192;28;20035;-64
2021/11/18 08:29:17;;;;;;;2.38;0.88;;;3.80;99.90;;;;;;5097996;28;20119;-64
2021/11/18 08:31:44;;;;;;;6.22;0.80;;;3.70;99.90;;;;;;5095484;28;20024;-64
2021/11/18 08:34:10;;;;;;;1.90;0.70;;;3.70;99.90;;;;;;5097928;28;20126;-64
2021/11/18 08:36:37;;;;;;;3.28;0.80;;;4.00;99.90;;;;;;5112264;28;20435;-64
2021/11/18 08:39:13;;;;;;;1.08;0.60;;;4.00;99.90;;;;;;5105983;28;20034;-65
2021/11/18 08:41:39;;;;;;;2.65;0.65;;;3.70;99.90;;;;;;5099104;28;20035;-64
2021/11/18 08:44:06;;;;;;;2.55;0.70;;;3.50;99.90;;;;;;5112510;28;20027;-63
2021/11/18 08:46:33;;;;;;;1.90;0.80;;;3.30;99.90;;;;;;5114609;27;20048;-63
2021/11/18 08:49:00;;;;;;;2.00;0.70;;;3.20;99.90;;;;;;5112212;28;20399;-65
2021/11/18 08:51:28;;;;;;;3.95;1.00;;;3.20;99.90;;;;;;5110796;28;20107;-65
2021/11/18 08:53:56;;;;;;;1.45;0.80;;;3.10;99.90;;;;;;5112047;28;20085;-65
2021/11/18 08:56:22;;;;;;;2.63;0.82;;;3.10;99.90;;;;;;5111567;28;20040;-65
2021/11/18 08:58:51;;;;;;;5.32;0.73;;;3.10;99.90;;;;;;5106870;28;20543;-65
2021/11/18 09:01:22;;;;;;;4.40;1.00;;;3.30;99.90;;;;;;5100842;28;20102;-66
2021/11/18 09:03:48;;;;;;;5.70;0.85;;;3.60;99.90;;;;;;5111769;28;20031;-64
2021/11/18 09:06:17;;;;;;;2.22;0.65;;;4.50;99.90;;;;;;5111712;28;20050;-64
2021/11/18 09:08:43;;;;;;;2.05;0.80;;;4.20;99.90;;;;;;5111785;28;20422;-64
2021/11/18 09:11:12;;;;;;;5.85;1.15;;;3.70;99.90;;;;;;5105714;28;20119;-64
2021/11/18 09:13:39;;;;;;;1.75;0.70;;;3.30;99.90;;;;;;5091789;28;20052;-64
2021/11/18 09:16:05;;;;;;;2.25;0.80;;;3.20;99.90;;;;;;5110581;28;20028;-64
2021/11/18 09:18:32;;;;;;;3.05;0.70;;;3.00;99.90;;;;;;5093348;28;20042;-64
2021/11/18 09:21:00;;;;;;;1.30;0.70;;;3.00;99.90;;;;;;5111615;28;20020;-64
2021/11/18 09:23:34;;;;;;;3.83;1.60;;;2.90;99.90;;;;;;5111671;28;20031;-64
2021/11/18 09:26:00;;;;;;;3.75;0.82;;;2.80;99.90;;;;;;5112535;28;20024;-64
2021/11/18 09:28:27;;;;;;;5.20;0.88;;;2.80;99.90;;;;;;5115774;28;20459;-64
2021/11/18 09:30:57;;;;;;;3.28;1.20;;;2.80;99.90;;;;;;5115860;28;20020;-64
2021/11/18 09:33:24;;;;;;;1.85;1.00;;;2.80;99.90;;;;;;5115655;28;20312;-64
2021/11/18 09:36:00;;;;;;;1.42;1.10;;;2.70;99.90;;;;;;5115792;28;20027;-64
2021/11/18 09:38:28;;;;;;;1.88;0.82;;;2.70;99.90;;;;;;5102243;28;20023;-64
2021/11/18 09:41:01;;;;;;;4.00;0.85;;;2.70;99.90;;;;;;5115772;28;20346;-64
2021/11/18 09:43:58;;;;;;;2.95;0.80;;;2.80;99.90;;;;;;5111463;28;20028;-64
2021/11/18 09:46:43;;;;;;;3.08;0.80;;;2.80;99.90;;;;;;5115432;28;20030;-64
2021/11/18 09:49:17;;;;;;;4.35;1.20;;;2.80;99.90;;;;;;5106406;28;20036;-64
2021/11/18 09:52:03;;;;;;;0.98;0.60;;;2.80;99.90;;;;;;5115663;28;20020;-64
2021/11/18 09:55:06;;;;;;;2.85;0.90;;;2.80;99.90;;;;;;5114719;28;20040;-64
2021/11/18 09:58:03;;;;;;;4.32;0.90;;;2.80;99.90;;;;;;5097731;28;20111;-64
2021/11/18 10:00:59;;;;;;;5.32;0.80;;;2.80;99.90;;;;;;5100585;28;20020;-64
2021/11/18 10:03:48;;;;;;;5.20;0.80;;;2.80;99.90;;;;;;5114965;28;20031;-64
2021/11/18 10:06:19;;;;;;;1.70;0.77;;;2.70;99.90;;;;;;5093208;28;20067;-64
2021/11/18 10:09:16;;;;;;;5.10;0.90;;;2.70;99.90;;;;;;5112974;27;20527;-65
2021/11/18 10:11:55;;;;;;;2.03;0.90;;;2.70;99.90;;;;;;5095470;28;20395;-65
2021/11/18 10:14:24;;;;;;;1.33;0.60;;;2.70;99.90;;;;;;5095798;28;20471;-65
2021/11/18 10:17:24;;;;;;;0.75;0.70;;;2.60;99.90;;;;;;5096491;28;20063;-65
2021/11/18 10:19:52;;;;;;;;;;;2.60;99.90;;;;;;5104838;28;20425;-65
2021/11/18 10:22:22;;;;;;;2.72;0.80;;;2.60;99.90;;;;;;5114241;28;19907;-65
2021/11/18 10:24:50;;;;;;;1.40;0.90;;;2.70;99.90;;;;;;5115095;28;20356;-65
2021/11/18 10:27:33;;;;;;;0.90;0.60;;;2.70;99.90;;;;;;5114376;28;20069;-65
2021/11/18 10:30:18;;;;;;;5.13;1.60;;;3.50;99.90;;;;;;5101518;28;20032;-64
2021/11/18 10:32:49;;;;;;;3.25;0.82;;;4.50;99.90;;;;;;5114685;27;20386;-64
2021/11/18 10:35:36;;;;;;;1.33;0.90;;;4.30;99.90;;;;;;5114262;28;20063;-64
2021/11/18 10:38:22;;;;;;;1.85;0.50;;;4.00;99.90;;;;;;5113408;28;20031;-65
2021/11/18 10:41:10;;;;;;;2.42;0.88;;;3.80;99.90;;;;;;5114124;28;20500;-64
2021/11/18 10:43:39;;;;;;;3.75;0.82;;;3.80;99.90;;;;;;5108001;28;20483;-65
2021/11/18 10:46:24;;;;;;;1.58;0.80;;;3.80;99.90;;;;;;5113970;28;20336;-65
2021/11/18 10:49:10;;;;;;;1.75;0.70;;;3.70;99.90;;;;;;5109589;28;20016;-66
2021/11/18 10:51:51;;;;;;;3.45;1.05;;;3.70;99.90;;;;;;5113715;28;20087;-64
2021/11/18 10:54:19;;;;;;;1.63;0.73;;;3.60;99.90;;;;;;5096723;28;20483;-64
2021/11/18 10:56:54;;;;;;;2.83;0.80;;;3.60;99.90;;;;;;5097353;28;20043;-64
2021/11/18 10:59:40;;;;;;;3.42;0.90;;;3.50;99.90;;;;;;5100338;28;20081;-64
2021/11/18 11:02:23;;;;;;;1.15;0.65;;;3.50;99.90;;;;;;5096501;28;20023;-65
2021/11/18 11:04:53;;;;;;;2.95;0.70;;;3.50;99.90;;;;;;5101521;28;20047;-64
2021/11/18 11:07:39;;;;;;;1.43;0.70;;;3.50;99.90;;;;;;5110930;28;20458;-64
2021/11/18 11:10:12;;;;;;;3.05;0.90;;;3.50;99.90;;;;;;5102270;27;20526;-63
2021/11/18 11:12:54;;;;;;;3.90;0.80;;;3.40;99.90;;;;;;5109490;28;20060;-63
2021/11/18 11:15:38;;;;;;;2.97;0.80;;;3.50;99.90;;;;;;5101675;28;20052;-64
2021/11/18 11:18:10;;;;;;;2.50;1.00;;;3.50;99.90;;;;;;5099148;28;20027;-63
2021/11/18 11:20:57;;;;;;;5.07;0.93;;;3.40;99.90;;;;;;5094380;28;20051;-64
2021/11/18 11:23:59;;;;;;;2.85;0.80;;;3.50;99.90;;;;;;5112550;28;20065;-63
2021/11/18 11:26:50;;;;;;;2.28;0.85;;;3.40;99.90;;;;;;5113484;27;20356;-64
2021/11/18 11:29:25;;;;;;;2.70;0.70;;;3.40;99.90;;;;;;5091647;28;20035;-65
2021/11/18 11:32:25;;;;;;;3.28;0.80;;;3.40;99.90;;;;;;5112553;28;20379;-63
2021/11/18 11:35:03;;;;;;;;;;;3.40;99.90;;;;;;5101426;28;20104;-63
2021/11/18 11:37:38;;;;;;;3.55;0.80;;;3.40;99.90;;;;;;5102240;28;19911;-63
2021/11/18 11:40:14;;;;;;;4.07;0.90;;;3.40;99.90;;;;;;5106061;28;20104;-63
2021/11/18 11:42:58;;;;;;;1.70;0.73;;;3.40;99.90;;;;;;5095431;28;20036;-62
2021/11/18 11:45:37;;;;;;;1.90;0.82;;;3.40;99.90;;;;;;5095048;28;20048;-63
2021/11/18 11:48:26;;;;;;;3.28;1.00;;;3.40;99.90;;;;;;5097293;28;20027;-63
2021/11/18 11:50:51;;;;;;;2.72;0.93;;;3.40;99.90;;;;;;5104230;28;20021;-63
2021/11/18 11:53:23;;;;;;;5.03;0.90;;;3.40;99.90;;;;;;5112628;28;20106;-62
2021/11/18 11:56:14;;;;;;;1.75;0.90;;;3.40;99.90;;;;;;5112751;28;20071;-62
2021/11/18 11:59:06;;;;;;;3.70;0.80;;;3.30;99.90;;;;;;5112859;28;20051;-62
2021/11/18 12:01:49;;;;;;;3.10;0.80;;;3.30;99.90;;;;;;5105888;28;20028;-63
2021/11/18 12:04:40;;;;;;;1.83;0.85;;;3.30;99.90;;;;;;5094375;28;20077;-63
2021/11/18 12:07:28;;;;;;;1.33;0.60;;;3.30;99.90;;;;;;5094568;28;20028;-62
2021/11/18 12:10:21;;;;;;;3.03;0.90;;;3.30;99.90;;;;;;5099772;28;20507;-62
2021/11/18 12:13:44;;;;;;;0.70;0.70;;;3.30;99.90;;;;;;5101014;28;20047;-62
2021/11/18 12:16:14;;;;;;;1.48;0.60;;;3.30;99.90;;;;;;5066340;28;20561;-65
2021/11/18 12:18:51;;;;;;;2.70;0.70;;;3.30;99.90;;;;;;5068614;28;20025;-63
2021/11/18 12:21:19;;;;;;;2.30;0.80;;;3.30;99.90;;;;;;5099438;28;20031;-63
2021/11/18 12:24:15;;;;;;;1.95;0.82;;;3.30;99.90;;;;;;5112248;28;20023;-64
2021/11/18 12:27:02;;;;;;;1.38;0.70;;;3.30;99.90;;;;;;5111650;28;20027;-64
2021/11/18 12:29:34;;;;;;;3.63;0.73;;;3.20;99.90;;;;;;5112691;28;20020;-64
2021/11/18 12:32:09;;;;;;;1.38;0.70;;;3.20;99.90;;;;;;5104157;28;20015;-64
2021/11/18 12:34:53;;;;;;;2.70;0.80;;;5.10;99.90;;;;;;5112075;28;20028;-65
2021/11/18 12:37:25;;;;;;;1.50;0.65;;;5.80;99.90;;;;;;5112266;28;20028;-65
2021/11/18 12:40:21;;;;;;;1.77;0.80;;;5.60;99.90;;;;;;5112215;28;20483;-64
2021/11/18 12:43:09;;;;;;;1.83;0.70;;;5.00;99.90;;;;;;5110977;28;20448;-64
2021/11/18 12:46:17;;;;;;;5.38;0.80;;;4.60;99.90;;;;;;5112084;28;20080;-65
2021/11/18 12:48:52;;;;;;;2.22;1.20;;;4.30;99.90;;;;;;5091884;28;20023;-65
2021/11/18 12:51:35;;;;;;;3.70;0.88;;;4.10;99.90;;;;;;5112132;28;20033;-66
2021/11/18 12:54:12;;;;;;;2.00;0.80;;;3.90;99.90;;;;;;5112099;28;20088;-65
2021/11/18 12:57:02;;;;;;;2.58;0.80;;;3.90;99.90;;;;;;5111747;28;20131;-64
2021/11/18 12:59:39;;;;;;;1.75;0.85;;;3.80;99.90;;;;;;5090876;28;20561;-63
2021/11/18 13:02:09;;;;;;;1.52;0.75;;;3.80;99.90;;;;;;5094768;28;20043;-63
2021/11/18 13:04:40;;;;;;;1.05;1.00;;;3.80;99.90;;;;;;5091142;28;20032;-63
2021/11/18 13:07:09;;;;;;;3.40;0.80;;;4.10;99.90;;;;;;5104521;28;20114;-63
2021/11/18 13:10:08;;;;;;;0.73;0.73;;;3.90;99.90;;;;;;5101741;28;20012;-63
2021/11/18 13:12:35;;;;;;;1.70;0.80;;;3.70;99.90;;;;;;5109462;28;20111;-63
2021/11/18 13:15:08;;;;;;;6.93;1.20;;;3.60;99.90;;;;;;5111618;28;20110;-63
2021/11/18 13:17:47;;;;;;;1.40;0.68;;;3.50;99.90;;;;;;5111968;28;20379;-63
2021/11/18 13:20:35;;;;;;;1.13;0.70;;;3.50;99.90;;;;;;5112136;28;20107;-62
2021/11/18 13:23:28;;;;;;;1.65;0.80;;;3.40;99.90;;;;;;5111982;28;20093;-63
2021/11/18 13:26:03;;;;;;;2.58;0.90;;;3.40;99.90;;;;;;5107306;28;20095;-63
2021/11/18 13:28:41;;;;;;;0.93;0.68;;;3.30;99.90;;;;;;5111707;28;20028;-62
2021/11/18 13:31:08;;;;;;;1.33;0.93;;;3.20;99.90;;;;;;5104956;28;20032;-62
2021/11/18 13:33:46;;;;;;;2.40;1.65;;;3.20;99.90;;;;;;5111742;28;20023;-62
2021/11/18 13:36:21;;;;;;;2.60;1.77;;;3.10;99.90;;;;;;5105074;28;20369;-62
2021/11/18 13:39:17;;;;;;;3.67;1.38;;;3.10;99.90;;;;;;5106172;28;20081;-62
2021/11/18 13:41:48;;;;;;;1.60;0.80;;;3.00;99.90;;;;;;5110449;28;20024;-62
2021/11/18 13:44:31;;;;;;;1.52;0.95;;;3.00;99.90;;;;;;5093642;28;20082;-62
2021/11/18 13:47:05;;;;;;;1.60;1.10;;;3.00;99.90;;;;;;5110420;28;20216;-62